Time;durP1;ratioP1;P1;durP2;ratioP2;P2;SDS_P1;SDS_P2;PMS_P1;PMS_P2;Temp;Humidity;BMP_temperature;BMP_pressure;BME280_temperature;BME280_humidity;BME280_pressure;Samples;Min_cycle;Max_cycle;Signal;HPM_P1;HPM_P2
2023/01/18 01:07:10;;;;;;;27.50;18.80;;;;;;;6.16;100.00;98068.89;106391;1267;216877;-37
2023/01/18 01:09:37;;;;;;;33.60;19.30;;;;;;;6.16;100.00;98064.30;106521;1270;60532;-37
2023/01/18 01:26:09;;;;;;;31.10;18.60;;;;;;;6.22;100.00;98051.70;106618;1266;73139;-37
2023/01/18 01:28:38;;;;;;;34.40;20.20;;;;;;;6.24;100.00;98038.52;106627;1267;70307;-37
2023/01/18 01:31:06;;;;;;;30.10;19.40;;;;;;;6.29;99.87;98034.05;106697;1275;74083;-38
2023/01/18 01:33:34;;;;;;;38.50;20.60;;;;;;;6.32;99.77;98028.85;106778;1269;61792;-37
2023/01/18 01:36:12;;;;;;;32.80;19.90;;;;;;;6.32;99.38;98023.40;106728;1270;59946;-37
2023/01/18 01:38:42;;;;;;;30.40;18.70;;;;;;;6.33;98.82;98028.04;106723;1267;74641;-37
2023/01/18 01:41:16;;;;;;;;;;;;;;;6.35;98.07;98026.05;106771;1270;71551;-37
2023/01/18 01:43:44;;;;;;;31.70;19.30;;;;;;;6.30;97.93;98021.20;106750;1269;73313;-37
2023/01/18 01:46:24;;;;;;;29.70;18.90;;;;;;;6.22;97.94;98025.80;106732;1267;62929;-37
2023/01/18 01:49:33;;;;;;;27.80;17.90;;;;;;;6.24;97.27;98030.14;106714;1267;60473;-38
2023/01/18 01:52:05;;;;;;;33.00;18.90;;;;;;;6.29;96.63;98035.35;106757;1266;71609;-38
2023/01/18 01:54:48;;;;;;;32.00;19.20;;;;;;;6.26;96.39;98038.91;106616;1272;69439;-37
2023/01/18 01:57:27;;;;;;;33.20;18.20;;;;;;;6.25;96.35;98034.84;106611;1267;71706;-37
2023/01/18 01:59:57;;;;;;;30.30;16.70;;;;;;;6.26;95.59;98040.92;106587;1267;61298;-37
2023/01/18 02:02:25;;;;;;;31.00;18.80;;;;;;;6.30;95.10;98034.30;106654;1267;62310;-37
2023/01/18 02:04:53;;;;;;;34.80;19.10;;;;;;;6.30;94.82;98022.06;106679;1270;74699;-37
2023/01/18 02:07:21;;;;;;;32.60;18.90;;;;;;;6.27;94.61;98020.64;106629;1270;70178;-37
2023/01/18 02:09:49;;;;;;;34.90;18.30;;;;;;;6.22;94.39;98017.55;106758;1269;74137;-37
2023/01/18 02:12:16;;;;;;;30.40;17.30;;;;;;;6.22;94.28;98014.50;106695;1266;63344;-38
2023/01/18 02:14:44;;;;;;;26.20;16.60;;;;;;;6.26;94.22;98014.63;106779;1267;59392;-37
2023/01/18 02:17:18;;;;;;;33.00;18.50;;;;;;;6.26;94.32;98013.31;106731;1267;74826;-38
2023/01/18 02:20:30;;;;;;;30.80;18.90;;;;;;;6.21;94.25;98006.26;106629;1267;69639;-37
2023/01/18 02:23:25;;;;;;;32.30;18.40;;;;;;;6.25;93.97;98003.61;106484;1266;74422;-37
2023/01/18 02:26:14;;;;;;;35.70;19.70;;;;;;;6.26;93.84;98008.17;106606;1270;61271;-38
2023/01/18 02:28:41;;;;;;;31.60;18.20;;;;;;;6.24;93.87;98000.92;106675;1267;60529;-37
2023/01/18 02:31:22;;;;;;;34.10;17.80;;;;;;;6.22;93.82;97997.11;106604;1267;75130;-37
2023/01/18 02:34:06;;;;;;;32.90;17.90;;;;;;;6.26;93.39;97992.95;106688;1267;69490;-37
2023/01/18 02:36:43;;;;;;;30.50;18.50;;;;;;;6.27;93.39;97993.27;106714;1267;74269;-37
2023/01/18 02:39:37;;;;;;;31.60;18.00;;;;;;;6.26;93.52;97995.79;106718;1266;62139;-38
2023/01/18 02:47:42;;;;;;;33.80;18.70;;;;;;;6.29;93.18;97986.98;106709;1270;69353;-37
2023/01/18 02:50:09;;;;;;;27.60;17.20;;;;;;;6.28;93.26;97978.67;106665;1267;73340;-37
2023/01/18 02:52:48;;;;;;;31.70;18.10;;;;;;;6.33;93.03;97975.03;106706;1267;62526;-37
2023/01/18 02:55:42;;;;;;;30.50;18.20;;;;;;;6.35;92.85;97954.15;106708;1267;60653;-37
2023/01/18 02:58:26;;;;;;;32.00;18.20;;;;;;;6.33;92.75;97972.35;106675;1264;74849;-37
2023/01/18 03:01:40;;;;;;;30.10;17.00;;;;;;;6.30;93.03;97987.77;106729;1267;69942;-38
2023/01/18 03:04:29;;;;;;;29.40;18.40;;;;;;;6.35;92.92;98001.82;106478;1267;74799;-37
2023/01/18 03:07:09;;;;;;;34.40;18.80;;;;;;;6.33;93.29;97987.81;106646;1267;60896;-37
2023/01/18 03:09:36;;;;;;;26.40;17.20;;;;;;;6.31;93.26;97986.17;107034;1257;61129;-37
2023/01/18 03:12:22;;;;;;;26.60;16.00;;;;;;;6.34;93.25;97983.97;106965;1260;71796;-37
2023/01/18 03:15:11;;;;;;;29.70;18.20;;;;;;;6.40;93.18;97985.60;106898;1261;70024;-37
2023/01/18 03:18:18;;;;;;;31.00;16.60;;;;;;;6.40;93.34;97978.83;106864;1263;74574;-37
2023/01/18 03:20:54;;;;;;;26.70;15.90;;;;;;;6.38;93.49;97975.96;106900;1264;62261;-37
2023/01/18 03:23:38;;;;;;;29.20;16.50;;;;;;;6.44;93.50;97968.18;106879;1257;61072;-37
2023/01/18 03:26:07;;;;;;;32.30;18.40;;;;;;;6.51;93.22;97967.44;106918;1257;75001;-37
2023/01/18 03:35:11;;;;;;;33.00;17.80;;;;;;;6.55;93.17;97962.39;107000;1257;61832;-37
2023/01/18 03:37:43;;;;;;;34.30;19.30;;;;;;;6.57;93.07;97961.42;106975;1257;59667;-37
2023/01/18 03:40:14;;;;;;;36.50;19.20;;;;;;;6.53;93.27;97956.77;107083;1263;73833;-37
2023/01/18 03:43:03;;;;;;;32.40;18.40;;;;;;;6.57;93.03;97947.34;107010;1260;70486;-37
2023/01/18 03:45:36;;;;;;;40.90;21.70;;;;;;;6.62;92.80;97941.86;107046;1261;74328;-37
2023/01/18 03:48:04;;;;;;;35.00;19.60;;;;;;;6.60;92.71;97942.21;107060;1261;62003;-37
2023/01/18 10:25:15;;;;;;;12.30;6.40;;;;;;;9.57;97.55;97730.69;105323;1280;612885;-38
2023/01/18 10:27:48;;;;;;;13.70;6.90;;;;;;;10.00;94.62;97725.82;106580;1270;197333;-38
2023/01/18 10:30:39;;;;;;;19.10;7.50;;;;;;;9.95;92.84;97730.87;106756;1264;62308;-37
2023/01/18 10:33:26;;;;;;;15.40;7.40;;;;;;;9.95;91.82;97718.73;106721;1264;73319;-38
2023/01/18 10:36:18;;;;;;;17.70;7.90;;;;;;;9.98;91.49;97711.66;106746;1264;70081;-38
2023/01/18 10:38:45;;;;;;;17.90;7.30;;;;;;;9.95;90.35;97716.10;106724;1266;73006;-38
2023/01/18 10:41:18;;;;;;;18.30;7.60;;;;;;;9.92;90.05;97711.39;106726;1268;62076;-38
2023/01/18 10:43:46;;;;;;;19.60;8.00;;;;;;;9.96;89.80;97716.31;106714;1268;59613;-38
2023/01/18 10:46:15;;;;;;;19.50;8.40;;;;;;;9.97;89.24;97719.19;106600;1265;73267;-38
2023/01/18 10:48:47;;;;;;;22.80;8.50;;;;;;;9.92;88.52;97725.38;106673;1268;70192;-38
2023/01/18 10:51:30;;;;;;;14.60;6.80;;;;;;;9.89;88.67;97722.92;106658;1264;74385;-38
2023/01/18 10:53:57;;;;;;;18.90;8.30;;;;;;;9.92;88.66;97732.19;106703;1267;59657;-38
2023/01/18 10:56:25;;;;;;;20.00;8.20;;;;;;;9.92;88.59;97732.97;106750;1269;60827;-38
2023/01/18 10:58:59;;;;;;;19.30;7.60;;;;;;;9.90;88.44;97734.30;106822;1266;73303;-38
2023/01/18 11:01:32;;;;;;;19.60;8.30;;;;;;;9.91;88.28;97725.94;106784;1268;69465;-38
2023/01/18 11:04:06;;;;;;;19.40;7.90;;;;;;;9.93;87.98;97725.30;106750;1266;75641;-38
2023/01/18 11:07:02;;;;;;;20.20;8.80;;;;;;;9.92;87.98;97724.60;106740;1268;60046;-38
2023/01/18 11:09:40;;;;;;;18.30;8.00;;;;;;;9.87;87.77;97721.08;106738;1266;60910;-38
2023/01/18 11:12:33;;;;;;;22.10;8.10;;;;;;;9.85;87.97;97729.67;106789;1268;73647;-38
2023/01/18 11:15:12;;;;;;;21.80;8.10;;;;;;;9.87;87.67;97727.04;106732;1264;68786;-38
2023/01/18 11:17:55;;;;;;;17.20;7.90;;;;;;;9.84;87.73;97733.94;106690;1268;74933;-38
2023/01/18 11:20:48;;;;;;;24.20;8.60;;;;;;;9.78;87.95;97733.58;106593;1270;62242;-38
2023/01/18 11:23:20;;;;;;;21.40;8.20;;;;;;;9.79;87.89;97733.26;106746;1264;61751;-39
2023/01/18 11:25:50;;;;;;;19.00;8.50;;;;;;;9.80;87.79;97730.63;106723;1264;74468;-38
2023/01/18 11:28:19;;;;;;;20.00;8.80;;;;;;;9.78;87.88;97733.73;107077;1258;69794;-38
2023/01/18 11:30:50;;;;;;;22.40;8.40;;;;;;;9.72;87.84;97729.52;107214;1260;73234;-38
2023/01/18 11:33:19;;;;;;;21.10;7.60;;;;;;;9.79;87.74;97737.89;107049;1257;62107;-38
2023/01/18 11:35:46;;;;;;;19.10;9.20;;;;;;;9.81;87.52;97733.34;107063;1258;61706;-39
2023/01/18 11:38:17;;;;;;;23.50;9.60;;;;;;;9.80;87.54;97729.85;106913;1263;74642;-39
2023/01/18 11:40:44;;;;;;;26.20;8.30;;;;;;;9.77;87.59;97735.05;107094;1262;69470;-38
2023/01/18 11:43:21;;;;;;;18.90;7.80;;;;;;;9.77;87.55;97732.02;107007;1257;71656;-38
2023/01/18 11:45:52;;;;;;;22.40;8.70;;;;;;;9.80;87.54;97718.48;107077;1260;61993;-38
2023/01/18 11:48:29;;;;;;;22.80;9.60;;;;;;;9.78;87.61;97721.27;107081;1257;61718;-38
2023/01/18 11:50:59;;;;;;;20.90;8.70;;;;;;;9.74;87.65;97721.36;107070;1264;74329;-38
2023/01/18 18:25:29;;;;;;;22.90;6.90;;;;;;;9.98;92.65;97983.80;105050;1283;615262;-40
2023/01/18 18:27:56;;;;;;;20.50;6.10;;;;;;;10.40;89.86;97980.41;106474;1264;203929;-40
2023/01/18 18:30:23;;;;;;;23.30;6.40;;;;;;;10.37;89.41;97973.91;106726;1264;61494;-40
2023/01/18 18:32:50;;;;;;;20.70;6.30;;;;;;;10.30;88.91;97974.71;106725;1264;73395;-40
2023/01/18 18:35:17;;;;;;;27.00;6.70;;;;;;;10.25;88.77;97989.35;106702;1264;68679;-39
2023/01/18 18:37:52;;;;;;;23.70;6.40;;;;;;;10.24;88.80;98007.69;106758;1264;73516;-40
2023/01/18 18:40:23;;;;;;;;;;;;;;;10.24;88.64;98013.64;106804;1264;61454;-40
2023/01/18 18:42:50;;;;;;;25.80;6.60;;;;;;;10.14;88.90;98017.29;106853;1264;60126;-40
2023/01/18 18:45:30;;;;;;;26.70;8.10;;;;;;;10.07;89.03;98038.70;106803;1264;73555;-40
2023/01/18 18:47:57;;;;;;;29.40;6.70;;;;;;;10.07;88.82;98037.94;106806;1264;69439;-40
2023/01/18 18:50:24;;;;;;;27.60;7.60;;;;;;;10.05;88.93;98036.31;106901;1264;73771;-40
2023/01/18 18:52:51;;;;;;;22.20;6.40;;;;;;;10.02;89.26;98041.17;106836;1264;63044;-41
2023/01/18 18:55:19;;;;;;;22.10;6.40;;;;;;;10.01;89.19;98053.10;106732;1264;60393;-40
2023/01/18 18:57:46;;;;;;;27.30;6.60;;;;;;;10.04;88.94;98063.00;106737;1264;72661;-40
2023/01/18 19:00:14;;;;;;;28.50;7.90;;;;;;;10.01;88.71;98076.77;106816;1263;69588;-40
2023/01/18 19:02:42;;;;;;;21.80;5.80;;;;;;;9.93;88.64;98079.01;106774;1264;73835;-40
2023/01/18 19:05:09;;;;;;;25.80;6.50;;;;;;;9.88;88.61;98076.68;106736;1264;62990;-40
2023/01/18 19:07:37;;;;;;;28.60;6.90;;;;;;;9.88;88.62;98071.33;106812;1264;59693;-40
2023/01/18 19:10:05;;;;;;;30.70;6.50;;;;;;;9.84;88.92;98069.33;106784;1264;74484;-40
2023/01/18 19:12:32;;;;;;;20.10;6.50;;;;;;;9.76;89.31;98076.20;106781;1269;69916;-40
2023/01/18 19:14:59;;;;;;;23.70;6.60;;;;;;;9.73;89.36;98088.27;106787;1263;73837;-40
2023/01/18 19:17:26;;;;;;;25.80;6.90;;;;;;;9.72;89.16;98095.77;106686;1264;61413;-40
2023/01/18 19:19:58;;;;;;;22.90;6.40;;;;;;;9.68;89.13;98091.59;106774;1264;61370;-40
2023/01/18 19:22:25;;;;;;;27.20;6.70;;;;;;;9.60;89.15;98089.08;106821;1264;74202;-40
2023/01/18 19:24:52;;;;;;;19.90;5.80;;;;;;;9.56;89.09;98099.52;106827;1267;69988;-41
2023/01/18 19:27:20;;;;;;;27.90;6.60;;;;;;;9.55;89.06;98110.71;106789;1267;71639;-41
2023/01/18 19:29:47;;;;;;;26.30;7.00;;;;;;;9.49;89.30;98113.95;106767;1267;61300;-40
2023/01/18 19:32:16;;;;;;;25.30;7.00;;;;;;;9.41;89.54;98114.93;106845;1269;60107;-41
2023/01/18 19:34:43;;;;;;;18.70;5.70;;;;;;;9.38;89.75;98129.77;106807;1267;74123;-40
2023/01/18 19:37:12;;;;;;;25.10;6.80;;;;;;;9.37;89.70;98136.55;106782;1267;70020;-41
2023/01/18 19:39:39;;;;;;;28.50;6.90;;;;;;;9.33;89.74;98136.15;106806;1267;73900;-40
2023/01/18 19:42:06;;;;;;;28.30;6.80;;;;;;;9.26;89.94;98134.95;106803;1264;61466;-40
2023/01/18 19:44:33;;;;;;;24.90;6.50;;;;;;;9.21;89.98;98134.63;106799;1265;60632;-40
